Time;durP1;ratioP1;P1;durP2;ratioP2;P2;SDS_P1;SDS_P2;PMS_P1;PMS_P2;Temp;Humidity;BMP_temperature;BMP_pressure;BME280_temperature;BME280_humidity;BME280_pressure;Samples;Min_cycle;Max_cycle;Signal;HPM_P1;HPM_P2
2022/06/24 00:01:14;;;;;;;4.20;3.80;;;;;;;19.26;70.51;94794.50;5095981;28;20575;-72
2022/06/24 00:03:40;;;;;;;4.38;3.92;;;;;;;19.22;70.58;94790.97;5096756;28;20205;-72
2022/06/24 00:06:13;;;;;;;5.00;4.30;;;;;;;19.19;70.74;94792.56;5096749;28;20588;-73
2022/06/24 00:08:48;;;;;;;6.25;5.03;;;;;;;19.18;70.75;94795.78;5098513;28;20257;-73
2022/06/24 00:11:16;;;;;;;5.95;5.10;;;;;;;19.18;70.89;94798.59;5098024;28;20200;-73
2022/06/24 00:13:43;;;;;;;6.68;4.72;;;;;;;19.18;71.12;94806.97;5098653;28;20218;-73
2022/06/24 00:16:11;;;;;;;5.05;4.57;;;;;;;19.18;71.13;94806.97;5098158;28;20208;-73
2022/06/24 00:18:37;;;;;;;7.10;4.78;;;;;;;19.20;71.00;94807.34;5097541;28;20218;-74
2022/06/24 00:21:11;;;;;;;7.00;5.38;;;;;;;19.23;71.18;94818.50;5098622;28;20197;-75
2022/06/24 00:23:40;;;;;;;6.10;4.72;;;;;;;19.22;71.07;94821.72;5098325;28;20195;-74
2022/06/24 00:26:07;;;;;;;4.65;3.40;;;;;;;19.24;71.07;94824.88;5097140;28;20522;-74
2022/06/24 00:28:35;;;;;;;4.95;4.40;;;;;;;19.27;70.81;94820.47;5096029;28;20261;-74
2022/06/24 00:31:03;;;;;;;4.18;3.70;;;;;;;19.26;70.90;94828.06;5097015;28;20196;-74
2022/06/24 00:33:34;;;;;;;5.35;3.80;;;;;;;19.27;70.99;94834.44;5096822;28;20203;-74
2022/06/24 00:36:01;;;;;;;3.90;3.60;;;;;;;19.29;71.15;94832.03;5096760;28;20210;-74
2022/06/24 00:38:30;;;;;;;3.80;3.50;;;;;;;19.29;70.83;94838.41;5096751;28;20287;-77
2022/06/24 00:41:01;;;;;;;4.20;3.80;;;;;;;19.30;70.94;94839.22;5097639;28;20184;-75
2022/06/24 00:43:32;;;;;;;3.95;3.42;;;;;;;19.30;70.83;94836.41;5096437;28;20199;-74
2022/06/24 00:46:10;;;;;;;4.35;3.80;;;;;;;19.27;70.56;94837.22;5096902;28;20192;-74
2022/06/24 00:48:40;;;;;;;4.55;3.33;;;;;;;19.26;70.32;94833.66;5097770;28;20214;-74
2022/06/24 00:51:08;;;;;;;3.70;3.40;;;;;;;19.24;70.72;94836.88;5097677;28;20212;-74
2022/06/24 00:53:42;;;;;;;3.83;3.42;;;;;;;19.21;70.66;94831.31;5096378;28;20519;-74
2022/06/24 00:56:11;;;;;;;4.15;3.75;;;;;;;19.20;71.00;94836.09;5097408;28;20200;-74
2022/06/24 00:58:38;;;;;;;6.63;3.90;;;;;;;19.18;71.06;94829.34;5097465;28;20200;-74
2022/06/24 01:01:05;;;;;;;4.20;3.80;;;;;;;19.12;71.07;94834.56;5097710;28;20611;-74
2022/06/24 01:03:39;;;;;;;5.65;4.40;;;;;;;19.09;71.60;94834.59;5098472;28;20205;-74
2022/06/24 01:06:06;;;;;;;5.80;4.80;;;;;;;19.07;70.93;94829.44;5095858;28;20188;-75
2022/06/24 01:08:33;;;;;;;4.97;4.35;;;;;;;19.05;70.96;94828.25;5095668;28;20227;-75
2022/06/24 01:11:00;;;;;;;4.65;4.00;;;;;;;19.06;71.25;94832.63;5095463;28;20195;-75
2022/06/24 01:13:27;;;;;;;5.10;4.40;;;;;;;19.03;71.00;94842.66;5094484;28;20200;-75
2022/06/24 01:15:54;;;;;;;5.40;3.85;;;;;;;19.04;71.62;94849.84;5095639;28;20185;-75
2022/06/24 01:18:22;;;;;;;4.65;4.10;;;;;;;19.06;71.01;94849.41;5094999;28;20211;-74
2022/06/24 01:20:51;;;;;;;4.80;4.35;;;;;;;19.07;71.41;94842.63;5094437;28;20235;-74
2022/06/24 01:23:26;;;;;;;4.93;4.43;;;;;;;19.06;71.40;94841.81;5094594;28;20242;-74
2022/06/24 01:25:53;;;;;;;5.82;4.70;;;;;;;19.04;71.65;94841.44;5095576;28;20204;-74
2022/06/24 01:28:20;;;;;;;5.85;4.13;;;;;;;19.05;71.49;94834.63;5095531;28;20274;-74
2022/06/24 01:30:46;;;;;;;4.60;4.20;;;;;;;19.01;71.24;94839.47;5095888;28;20208;-75
2022/06/24 01:33:13;;;;;;;4.53;4.07;;;;;;;18.92;71.06;94830.78;5096880;28;20184;-74
2022/06/24 01:35:40;;;;;;;5.75;4.20;;;;;;;18.87;71.68;94842.38;5096946;28;20195;-74
2022/06/24 01:38:07;;;;;;;4.95;4.55;;;;;;;18.88;71.36;94839.19;5096197;28;20184;-74
2022/06/24 01:40:35;;;;;;;5.95;4.13;;;;;;;18.86;71.94;94838.81;5097994;28;20192;-74
2022/06/24 01:43:02;;;;;;;4.72;4.32;;;;;;;18.85;71.95;94830.84;5099870;28;20199;-74
2022/06/24 01:45:29;;;;;;;4.60;3.67;;;;;;;18.84;71.94;94835.63;5099891;28;20177;-74
2022/06/24 01:47:56;;;;;;;4.10;3.65;;;;;;;18.84;72.12;94832.81;5098313;28;20192;-74
2022/06/24 01:50:23;;;;;;;4.50;4.00;;;;;;;18.89;71.93;94826.81;5099195;28;20216;-74
2022/06/24 01:52:49;;;;;;;4.57;4.07;;;;;;;18.88;72.02;94824.41;5098779;28;20185;-75
2022/06/24 01:55:16;;;;;;;4.75;4.03;;;;;;;18.89;72.04;94820.44;5098094;28;20201;-74
2022/06/24 01:57:45;;;;;;;4.50;4.10;;;;;;;18.86;72.02;94810.88;5098448;28;20196;-73
2022/06/24 02:00:13;;;;;;;5.68;3.80;;;;;;;18.82;72.31;94796.13;5097998;28;20203;-74
2022/06/24 02:02:39;;;;;;;4.82;3.95;;;;;;;18.74;71.86;94791.81;5098287;28;20211;-73
2022/06/24 02:05:07;;;;;;;4.13;3.72;;;;;;;18.67;72.13;94794.66;5098089;28;20192;-74
2022/06/24 02:07:34;;;;;;;7.97;4.13;;;;;;;18.62;72.71;94793.06;5098583;28;20532;-74
2022/06/24 02:15:30;;;;;;;5.22;3.75;;;;;;;18.62;73.29;94800.66;5098579;28;20508;-74
2022/06/24 02:17:56;;;;;;;5.53;4.38;;;;;;;18.62;73.62;94800.66;5098369;28;20204;-74
2022/06/24 02:20:23;;;;;;;4.18;3.88;;;;;;;18.61;73.38;94807.47;5098660;28;20199;-74
2022/06/24 02:22:50;;;;;;;4.88;4.00;;;;;;;18.61;73.50;94802.66;5098675;28;20596;-74
2022/06/24 02:25:17;;;;;;;5.43;4.20;;;;;;;18.64;73.65;94795.47;5098552;28;20199;-74
2022/06/24 02:27:46;;;;;;;4.90;4.40;;;;;;;18.66;73.28;94798.63;5099822;28;20236;-74
2022/06/24 02:30:13;;;;;;;4.30;3.90;;;;;;;18.66;73.15;94801.41;5099012;28;20547;-74
2022/06/24 02:32:40;;;;;;;4.65;4.25;;;;;;;18.66;73.49;94813.38;5098187;28;20628;-74
2022/06/24 02:35:07;;;;;;;5.88;4.75;;;;;;;18.67;73.91;94814.19;5097580;28;20211;-74
2022/06/24 02:37:34;;;;;;;5.13;4.60;;;;;;;18.64;73.92;94815.00;5098175;28;20608;-74
2022/06/24 02:40:45;;;;;;;5.35;4.63;;;;;;;18.63;73.34;94824.59;5097916;28;20197;-74
2022/06/24 02:42:54;;;;;;;5.55;4.95;;;;;;;18.64;73.32;94815.81;5097840;28;20294;-74
2022/06/24 02:45:21;;;;;;;4.72;4.13;;;;;;;18.65;73.04;94809.00;5098180;28;20192;-74
2022/06/24 02:47:48;;;;;;;5.57;4.30;;;;;;;18.64;73.00;94803.84;5097602;28;20207;-74
2022/06/24 02:50:15;;;;;;;5.60;4.43;;;;;;;18.61;72.78;94807.47;5096856;28;20212;-74
2022/06/24 02:52:41;;;;;;;4.57;4.18;;;;;;;18.59;73.01;94809.84;5098154;28;20188;-75
2022/06/24 02:55:09;;;;;;;4.93;4.50;;;;;;;18.56;73.01;94799.53;5097922;28;20200;-75
2022/06/24 02:57:36;;;;;;;6.05;4.63;;;;;;;18.55;72.63;94801.50;5096743;28;20196;-75
2022/06/24 03:00:06;;;;;;;6.63;4.38;;;;;;;18.47;72.19;94809.16;5096677;28;20196;-75
2022/06/24 03:02:32;;;;;;;4.25;3.90;;;;;;;18.39;71.73;94813.19;5097947;28;20180;-75
2022/06/24 03:04:59;;;;;;;5.22;4.43;;;;;;;18.32;72.03;94818.03;5096886;28;20189;-75
2022/06/24 03:07:26;;;;;;;4.47;4.07;;;;;;;18.25;72.21;94818.88;5096874;28;20192;-75
2022/06/24 03:09:53;;;;;;;4.80;4.40;;;;;;;18.20;72.61;94811.72;5097310;28;20201;-74
2022/06/24 03:12:20;;;;;;;4.72;3.70;;;;;;;18.19;72.63;94810.16;5097706;28;20188;-74
2022/06/24 03:14:47;;;;;;;5.18;4.43;;;;;;;18.14;72.71;94821.72;5080158;28;20200;-74
2022/06/24 03:17:15;;;;;;;6.78;4.22;;;;;;;18.12;72.85;94828.91;5096526;28;20201;-75
2022/06/24 03:19:42;;;;;;;4.93;4.20;;;;;;;18.13;72.91;94828.53;5097314;28;20203;-75
2022/06/24 03:22:09;;;;;;;4.80;4.22;;;;;;;18.11;73.05;94825.34;5097055;28;20200;-75
2022/06/24 03:24:36;;;;;;;5.55;4.07;;;;;;;18.12;72.03;94826.13;5096629;28;20257;-75
2022/06/24 03:27:03;;;;;;;4.15;3.75;;;;;;;18.08;71.56;94831.72;5096092;28;20239;-75
2022/06/24 03:29:31;;;;;;;4.03;3.50;;;;;;;18.06;71.26;94831.34;5096244;28;20223;-75
2022/06/24 03:31:58;;;;;;;4.70;4.07;;;;;;;18.04;71.10;94836.53;5096478;28;20207;-75
2022/06/24 03:34:26;;;;;;;4.53;4.10;;;;;;;18.02;71.02;94833.38;5096695;28;20189;-74
2022/06/24 03:36:53;;;;;;;4.88;3.70;;;;;;;17.99;71.10;94837.75;5095869;28;20208;-74
2022/06/24 03:39:20;;;;;;;4.47;3.90;;;;;;;18.00;70.72;94842.13;5096231;28;20196;-74
2022/06/24 03:41:46;;;;;;;3.85;3.42;;;;;;;17.98;70.36;94838.19;5096383;28;20180;-74
2022/06/24 03:44:13;;;;;;;6.38;4.00;;;;;;;17.99;70.51;94828.59;5096659;28;20203;-74
2022/06/24 03:46:40;;;;;;;6.20;4.00;;;;;;;18.01;70.68;94829.78;5096136;28;20203;-74
2022/06/24 03:49:07;;;;;;;4.93;3.47;;;;;;;18.04;70.58;94834.53;5095761;28;20207;-74
2022/06/24 03:51:35;;;;;;;4.80;4.07;;;;;;;18.02;70.73;94836.94;5095584;28;20216;-74
2022/06/24 03:54:02;;;;;;;4.57;4.18;;;;;;;18.02;70.89;94842.53;5096040;28;20203;-74
2022/06/24 03:56:29;;;;;;;7.32;3.80;;;;;;;18.01;70.83;94831.75;5096049;28;20200;-74
2022/06/24 03:58:56;;;;;;;4.78;4.22;;;;;;;18.01;70.95;94831.75;5096452;28;20180;-74
2022/06/24 04:01:22;;;;;;;5.43;4.43;;;;;;;18.04;71.06;94825.38;5094923;28;20210;-74
2022/06/24 04:03:49;;;;;;;5.43;4.53;;;;;;;18.06;70.70;94824.97;5095637;28;20517;-72
2022/06/24 04:06:16;;;;;;;5.07;4.05;;;;;;;18.07;71.55;94829.34;5095920;28;20200;-75
2022/06/24 04:08:44;;;;;;;5.30;4.78;;;;;;;18.09;71.46;94822.16;5095149;28;20200;-75
2022/06/24 04:11:11;;;;;;;6.43;5.78;;;;;;;18.10;71.97;94831.34;5095478;28;20204;-75
2022/06/24 04:13:38;;;;;;;5.28;4.80;;;;;;;18.10;71.82;94829.34;5095838;28;20197;-74
2022/06/24 04:16:07;;;;;;;5.82;5.30;;;;;;;18.10;72.21;94840.50;5095719;28;20188;-74
2022/06/24 04:18:34;;;;;;;6.13;5.13;;;;;;;18.14;72.15;94844.06;5095597;28;20553;-74
2022/06/24 04:21:01;;;;;;;7.70;5.65;;;;;;;18.18;71.81;94846.81;5095583;28;20195;-74
2022/06/24 04:23:28;;;;;;;7.38;5.90;;;;;;;18.18;71.59;94847.63;5095340;28;20189;-74
2022/06/24 04:25:56;;;;;;;6.28;5.68;;;;;;;18.22;71.83;94836.44;5095842;28;20204;-75
2022/06/24 04:28:23;;;;;;;7.53;6.38;;;;;;;18.24;72.05;94851.59;5095776;28;20583;-75
2022/06/24 04:30:49;;;;;;;8.77;7.88;;;;;;;18.27;72.59;94849.97;5096119;28;20215;-74
2022/06/24 04:33:16;;;;;;;9.52;8.52;;;;;;;18.29;72.81;94855.94;5096148;28;20196;-74
2022/06/24 04:35:43;;;;;;;11.68;8.88;;;;;;;18.26;73.60;94854.78;5095773;28;20601;-74
2022/06/24 04:38:10;;;;;;;10.00;8.80;;;;;;;18.31;73.57;94864.72;5095686;28;20531;-75
2022/06/24 04:40:37;;;;;;;11.38;9.32;;;;;;;18.32;73.96;94869.06;5096084;28;20184;-75
2022/06/24 04:43:05;;;;;;;11.60;10.48;;;;;;;18.31;73.90;94861.13;5095656;28;20619;-75
2022/06/24 04:45:33;;;;;;;11.98;10.82;;;;;;;18.33;74.13;94861.50;5094986;28;20201;-74
2022/06/24 04:48:00;;;;;;;12.40;11.10;;;;;;;18.37;74.35;94853.88;5095897;28;20188;-74
2022/06/24 04:50:27;;;;;;;14.45;11.45;;;;;;;18.39;74.58;94859.88;5095516;28;20226;-74
2022/06/24 04:52:54;;;;;;;11.60;10.50;;;;;;;18.41;74.15;94860.25;5095833;28;20193;-74
2022/06/24 04:55:20;;;;;;;10.82;9.82;;;;;;;18.39;74.37;94869.03;5094822;28;20204;-75
2022/06/24 04:57:47;;;;;;;10.00;8.40;;;;;;;18.39;73.91;94862.66;5094862;28;20196;-74
2022/06/24 05:00:16;;;;;;;8.15;7.05;;;;;;;18.39;73.75;94866.25;5095132;28;20253;-74
2022/06/24 05:02:43;;;;;;;8.52;6.43;;;;;;;18.44;73.96;94868.59;5094751;28;20200;-74
2022/06/24 05:05:11;;;;;;;7.57;6.88;;;;;;;18.50;74.08;94871.75;5094792;28;20211;-74
2022/06/24 05:07:39;;;;;;;10.68;7.05;;;;;;;18.55;74.23;94867.75;5094909;28;20188;-74
2022/06/24 05:10:08;;;;;;;9.23;6.60;;;;;;;18.57;74.54;94866.13;5095538;28;20239;-74
2022/06/24 05:12:35;;;;;;;7.40;6.80;;;;;;;18.61;74.29;94872.47;5094617;28;20199;-74
2022/06/24 05:15:02;;;;;;;7.93;7.07;;;;;;;18.62;74.16;94870.47;5094710;28;20200;-74
2022/06/24 05:17:30;;;;;;;7.63;6.82;;;;;;;18.64;74.45;94879.25;5094528;28;20200;-74
2022/06/24 05:19:57;;;;;;;8.15;7.35;;;;;;;18.67;74.62;94875.66;5095438;28;20180;-74
2022/06/24 05:22:24;;;;;;;8.90;7.07;;;;;;;18.67;74.51;94876.44;5095451;28;20195;-74
2022/06/24 05:24:51;;;;;;;8.70;7.85;;;;;;;18.69;74.56;94878.81;5095373;28;20195;-74
2022/06/24 05:27:17;;;;;;;8.85;7.95;;;;;;;18.69;73.69;94882.41;5095116;28;20282;-74
2022/06/24 05:29:44;;;;;;;9.57;8.27;;;;;;;18.71;74.00;94896.78;5094978;28;20593;-74
2022/06/24 05:32:11;;;;;;;8.80;7.95;;;;;;;18.74;74.46;94893.19;5095265;28;20211;-75
2022/06/24 05:34:39;;;;;;;9.13;8.35;;;;;;;18.80;74.05;94898.31;5095308;28;20191;-75
2022/06/24 05:37:06;;;;;;;8.57;7.78;;;;;;;18.84;74.27;94910.25;5095301;28;20187;-74
2022/06/24 05:39:33;;;;;;;8.48;7.68;;;;;;;18.89;74.10;94907.06;5094318;28;20192;-74
2022/06/24 05:41:59;;;;;;;12.68;9.07;;;;;;;18.97;74.31;94905.78;5094909;28;20530;-74
2022/06/24 05:44:26;;;;;;;10.15;8.07;;;;;;;19.06;74.28;94902.50;5094348;28;20196;-75
2022/06/24 05:46:54;;;;;;;8.18;7.38;;;;;;;19.10;73.62;94904.09;5095135;28;20211;-74
2022/06/24 05:49:22;;;;;;;7.97;7.28;;;;;;;19.13;73.35;94891.28;5094172;28;20253;-74
2022/06/24 05:51:50;;;;;;;8.13;7.43;;;;;;;19.19;73.30;94896.00;5094321;28;20213;-74
2022/06/24 05:57:01;;;;;;;7.35;6.65;;;;;;;19.29;72.95;94910.31;5095207;28;20180;-72
2022/06/24 05:59:27;;;;;;;6.35;5.82;;;;;;;19.31;71.65;94913.47;5094314;28;20211;-72
2022/06/24 06:01:54;;;;;;;6.85;6.25;;;;;;;19.31;71.81;94919.06;5094627;28;20199;-73
2022/06/24 06:04:21;;;;;;;6.30;5.80;;;;;;;19.29;71.85;94921.50;5094055;28;20204;-73
2022/06/24 06:06:49;;;;;;;6.85;6.25;;;;;;;19.29;72.29;94927.88;5094922;28;20200;-74
2022/06/24 06:09:17;;;;;;;6.65;6.05;;;;;;;19.31;71.78;94917.06;5094091;28;20281;-74
2022/06/24 06:11:44;;;;;;;7.47;6.78;;;;;;;19.33;71.67;94916.69;5094067;28;20216;-74
2022/06/24 06:14:11;;;;;;;6.57;5.97;;;;;;;19.36;72.29;94908.25;5094676;28;20208;-74
2022/06/24 06:16:37;;;;;;;6.57;5.75;;;;;;;19.43;72.28;94919.38;5094616;28;20184;-74
2022/06/24 06:19:04;;;;;;;5.90;5.40;;;;;;;19.45;71.13;94907.75;5094117;28;20192;-74
2022/06/24 06:21:31;;;;;;;8.50;6.38;;;;;;;19.48;70.93;94904.13;5093862;28;20192;-74
2022/06/24 06:23:58;;;;;;;6.13;5.63;;;;;;;19.47;70.78;94903.34;5094423;28;20539;-74
2022/06/24 06:26:26;;;;;;;6.22;5.70;;;;;;;19.51;70.57;94899.72;5097689;28;20196;-74
2022/06/24 06:28:53;;;;;;;8.27;5.90;;;;;;;19.54;70.45;94896.09;5097844;28;20220;-75
2022/06/24 06:31:20;;;;;;;6.30;5.70;;;;;;;19.56;70.27;94894.47;5098043;28;20211;-74
2022/06/24 06:33:48;;;;;;;6.63;5.93;;;;;;;19.54;69.98;94904.50;5097193;28;20291;-75
2022/06/24 06:36:15;;;;;;;6.03;5.53;;;;;;;19.55;70.10;94895.69;5098300;28;20203;-75
2022/06/24 06:38:42;;;;;;;7.03;6.15;;;;;;;19.58;70.55;94892.06;5098088;28;20197;-74
2022/06/24 06:41:09;;;;;;;6.50;5.90;;;;;;;19.61;70.20;94890.44;5097993;28;20537;-75
2022/06/24 06:43:38;;;;;;;6.03;5.43;;;;;;;19.63;69.76;94885.25;5098047;28;20192;-74
2022/06/24 06:46:04;;;;;;;6.43;5.90;;;;;;;19.66;69.82;94884.41;5098079;28;20185;-74
2022/06/24 06:48:31;;;;;;;6.15;5.65;;;;;;;19.68;69.40;94880.00;5098215;28;20211;-74
2022/06/24 06:50:59;;;;;;;6.13;5.63;;;;;;;19.71;69.22;94878.34;5097410;28;20212;-74
2022/06/24 06:53:27;;;;;;;6.07;5.57;;;;;;;19.70;69.21;94869.16;5098060;28;20189;-75
2022/06/24 06:55:54;;;;;;;7.15;6.15;;;;;;;19.71;69.23;94864.34;5098385;28;20201;-75
2022/06/24 06:58:22;;;;;;;6.93;6.15;;;;;;;19.75;69.39;94872.72;5097034;28;20196;-74
2022/06/24 07:00:51;;;;;;;7.43;6.65;;;;;;;19.80;69.65;94873.06;5096902;28;20208;-74
2022/06/24 07:03:18;;;;;;;8.32;6.80;;;;;;;19.84;69.97;94867.41;5097893;28;20185;-74
2022/06/24 07:05:45;;;;;;;6.50;5.82;;;;;;;19.88;69.21;94866.16;5098073;28;20184;-75
2022/06/24 07:08:12;;;;;;;6.50;5.95;;;;;;;19.90;68.77;94871.34;5096928;28;20204;-74
2022/06/24 07:10:39;;;;;;;6.53;5.95;;;;;;;19.93;69.11;94864.91;5097080;28;20193;-75
2022/06/24 07:13:06;;;;;;;7.55;6.85;;;;;;;19.96;68.87;94866.88;5097757;28;20188;-75
2022/06/24 07:15:33;;;;;;;8.40;6.22;;;;;;;20.01;68.33;94872.03;5097331;28;20527;-74
2022/06/24 07:18:02;;;;;;;7.00;6.13;;;;;;;20.02;67.81;94859.59;5097336;28;20177;-74
2022/06/24 07:20:28;;;;;;;6.38;5.82;;;;;;;20.04;67.54;94865.56;5096939;28;20197;-74
2022/06/24 07:22:55;;;;;;;6.32;5.80;;;;;;;20.07;67.52;94859.13;5097447;28;20204;-74
2022/06/24 07:25:22;;;;;;;6.05;5.55;;;;;;;20.08;67.21;94857.94;5096382;28;20531;-73
2022/06/24 07:27:49;;;;;;;5.93;5.43;;;;;;;20.10;66.40;94849.88;5097409;28;20239;-76
2022/06/24 07:30:16;;;;;;;5.20;4.80;;;;;;;20.11;66.08;94853.47;5097370;28;20192;-76
2022/06/24 07:32:42;;;;;;;5.47;4.72;;;;;;;20.12;66.31;94864.28;5096573;28;20209;-76
2022/06/24 07:35:11;;;;;;;5.30;4.85;;;;;;;20.16;66.75;94853.03;5096424;28;20203;-75
2022/06/24 07:37:38;;;;;;;4.97;4.47;;;;;;;20.23;66.74;94860.53;5097198;28;20195;-76
2022/06/24 07:40:06;;;;;;;4.85;4.45;;;;;;;20.31;66.21;94850.81;5096331;28;20196;-73
2022/06/24 07:42:33;;;;;;;5.47;4.45;;;;;;;20.45;66.73;94856.22;5097257;28;20561;-75
2022/06/24 07:45:00;;;;;;;5.40;4.88;;;;;;;20.54;66.07;94859.31;5096317;28;20204;-74
2022/06/24 07:47:26;;;;;;;7.00;4.70;;;;;;;20.56;65.67;94850.50;5096111;28;20200;-72
2022/06/24 07:49:53;;;;;;;7.45;4.80;;;;;;;20.60;65.80;94848.44;5096041;28;20547;-75
2022/06/24 07:52:21;;;;;;;5.78;4.80;;;;;;;20.68;65.57;94844.31;5096302;28;20538;-73
2022/06/24 07:56:56;;;;;;;4.93;4.43;;;;;;;20.73;65.48;94846.63;5095676;28;20203;-71
2022/06/24 07:57:34;;;;;;;5.22;4.40;;;;;;;20.81;65.49;94850.13;5095600;28;20203;-72
2022/06/24 08:00:01;;;;;;;6.13;4.65;;;;;;;20.87;65.47;94846.38;5095937;28;20192;-72
2022/06/24 08:02:28;;;;;;;5.10;4.38;;;;;;;20.98;65.11;94842.63;5096095;28;20200;-72
2022/06/24 08:04:55;;;;;;;4.50;4.10;;;;;;;21.06;64.42;94841.28;5095807;28;20204;-72
2022/06/24 08:07:23;;;;;;;4.22;3.92;;;;;;;21.12;64.39;94842.38;5095625;28;20212;-72
2022/06/24 08:09:50;;;;;;;4.88;3.78;;;;;;;21.16;64.44;94834.69;5095628;28;20192;-72
2022/06/24 08:12:17;;;;;;;5.25;4.03;;;;;;;21.26;63.70;94833.72;5095445;28;20615;-72
2022/06/24 08:14:44;;;;;;;4.88;4.47;;;;;;;21.26;64.06;94839.34;5095602;28;20640;-72
2022/06/24 08:17:11;;;;;;;4.40;4.00;;;;;;;21.23;63.61;94845.78;5095661;28;20620;-72
2022/06/24 08:19:38;;;;;;;4.18;3.78;;;;;;;21.26;63.92;94841.34;5095151;28;20192;-72
2022/06/24 08:22:05;;;;;;;4.22;3.92;;;;;;;21.30;63.65;94844.88;5095501;28;20206;-72
2022/06/24 08:24:33;;;;;;;4.38;3.75;;;;;;;21.31;63.40;94838.03;5095250;28;20627;-72
2022/06/24 08:27:00;;;;;;;5.28;3.85;;;;;;;21.32;63.59;94832.03;5095142;28;20239;-73
2022/06/24 08:29:27;;;;;;;4.40;4.00;;;;;;;21.39;63.54;94831.13;5095308;28;20188;-74
2022/06/24 08:31:54;;;;;;;4.03;3.65;;;;;;;21.45;63.20;94831.41;5095299;28;20212;-72
2022/06/24 08:34:22;;;;;;;4.22;3.83;;;;;;;21.47;63.19;94834.59;5095426;28;20544;-72
2022/06/24 08:36:50;;;;;;;4.22;3.60;;;;;;;21.53;62.94;94828.06;5095028;28;20698;-72
2022/06/24 08:39:16;;;;;;;4.07;3.78;;;;;;;21.66;63.21;94841.44;5094859;28;20196;-72
2022/06/24 08:41:47;;;;;;;4.43;4.03;;;;;;;21.71;62.79;94838.91;5095433;28;20211;-72
2022/06/24 08:44:14;;;;;;;5.63;4.35;;;;;;;21.80;62.64;94849.59;5095131;28;20225;-72
2022/06/24 08:46:41;;;;;;;5.25;4.45;;;;;;;21.84;62.84;94847.50;5095330;28;20551;-72
2022/06/24 08:49:08;;;;;;;6.65;4.75;;;;;;;21.87;62.66;94847.44;5094438;28;20612;-72
2022/06/24 08:51:34;;;;;;;5.95;4.40;;;;;;;21.92;62.80;94848.94;5094917;28;20231;-75
2022/06/24 08:54:03;;;;;;;4.43;3.72;;;;;;;21.96;62.32;94846.84;5094658;28;20200;-72
2022/06/24 08:56:30;;;;;;;3.97;3.67;;;;;;;;;;5094845;28;20279;-72
2022/06/24 08:58:58;;;;;;;3.92;3.60;;;;;;;22.16;62.25;94848.91;5094802;28;20211;-72
2022/06/24 09:01:25;;;;;;;3.90;3.60;;;;;;;22.22;60.92;94844.34;5094413;28;20204;-72
2022/06/24 09:03:52;;;;;;;4.65;4.25;;;;;;;22.27;60.92;94843.84;5095324;28;20195;-72
2022/06/24 09:06:19;;;;;;;4.68;3.80;;;;;;;22.27;60.69;94835.41;5095762;28;20177;-72
2022/06/24 09:08:47;;;;;;;4.57;3.83;;;;;;;22.35;62.31;94843.25;5095655;28;20184;-71
2022/06/24 09:11:14;;;;;;;3.83;3.50;;;;;;;22.43;61.67;94832.63;5094214;28;20204;-71
2022/06/24 09:13:42;;;;;;;4.13;3.72;;;;;;;22.50;61.24;94834.50;5095257;28;20494;-71
2022/06/24 09:16:11;;;;;;;4.30;3.90;;;;;;;22.64;60.98;94833.38;5094274;28;20189;-72
2022/06/24 09:18:38;;;;;;;3.80;3.50;;;;;;;22.68;60.60;94826.44;5094544;28;20192;-72
2022/06/24 09:21:04;;;;;;;5.50;3.75;;;;;;;22.70;59.45;94832.44;5095203;28;20516;-72
2022/06/24 09:23:31;;;;;;;3.95;3.40;;;;;;;22.75;59.64;94825.50;5095319;28;20517;-72
2022/06/24 09:26:00;;;;;;;4.82;3.75;;;;;;;22.82;59.43;94828.13;5095344;28;20188;-72
2022/06/24 09:28:28;;;;;;;4.28;3.40;;;;;;;22.90;59.68;94837.19;5095680;28;20236;-71
2022/06/24 09:31:00;;;;;;;4.32;3.58;;;;;;;22.93;58.77;94822.28;5094366;28;20192;-73
2022/06/24 09:33:29;;;;;;;4.10;3.80;;;;;;;22.97;58.42;94831.41;5094445;28;20212;-74
2022/06/24 09:36:00;;;;;;;3.47;3.17;;;;;;;23.00;58.26;94833.34;5095413;28;20181;-74
2022/06/24 09:38:28;;;;;;;3.83;3.53;;;;;;;23.07;59.11;94841.63;5094369;28;20604;-72
2022/06/24 09:41:00;;;;;;;3.72;3.33;;;;;;;23.16;60.48;94835.38;5093964;28;20609;-74
2022/06/24 09:43:30;;;;;;;4.85;3.65;;;;;;;23.21;58.78;94835.63;5094025;28;20207;-74
2022/06/24 09:45:56;;;;;;;4.25;3.45;;;;;;;23.26;57.05;94837.13;5094771;28;20223;-73
2022/06/24 09:48:29;;;;;;;4.00;3.60;;;;;;;23.32;57.96;94838.19;5095400;28;20211;-72
2022/06/24 09:50:57;;;;;;;5.25;4.00;;;;;;;23.38;57.01;94838.41;5095485;28;20184;-72
2022/06/24 09:53:24;;;;;;;6.15;3.42;;;;;;;23.40;56.67;94833.94;5095297;28;20212;-74
2022/06/24 09:55:51;;;;;;;4.18;2.78;;;;;;;23.46;56.83;94837.81;5094946;28;20204;-71
2022/06/24 09:58:18;;;;;;;4.65;3.40;;;;;;;23.55;56.84;94837.94;5094385;28;20207;-70
2022/06/24 10:00:45;;;;;;;3.45;3.13;;;;;;;23.60;55.64;94845.06;5095565;28;20213;-71
2022/06/24 10:03:13;;;;;;;4.63;3.25;;;;;;;23.66;56.22;94846.09;5098867;28;20191;-72
2022/06/24 10:05:42;;;;;;;5.00;4.20;;;;;;;23.75;57.76;94834.25;5098511;28;20521;-71
2022/06/24 10:08:14;;;;;;;3.38;3.13;;;;;;;23.85;56.14;94838.78;5098677;28;20189;-72
2022/06/24 10:10:45;;;;;;;3.55;3.25;;;;;;;23.85;55.72;94847.22;5098832;28;20181;-72
2022/06/24 10:13:19;;;;;;;4.07;3.33;;;;;;;23.94;55.85;94849.41;5098778;28;20227;-71
2022/06/24 10:15:46;;;;;;;4.28;2.72;;;;;;;23.96;54.50;94839.25;5098869;28;20204;-71
2022/06/24 10:18:13;;;;;;;2.95;2.75;;;;;;;24.01;54.64;94846.41;5098017;28;20231;-71
2022/06/24 10:20:44;;;;;;;3.75;3.30;;;;;;;24.08;53.77;94851.03;5098751;28;20188;-71
2022/06/24 10:23:41;;;;;;;3.50;3.20;;;;;;;24.14;53.46;94846.44;5098677;28;20176;-70
2022/06/24 10:26:16;;;;;;;3.25;2.95;;;;;;;24.16;53.18;94846.78;5098763;28;20230;-71
2022/06/24 10:29:20;;;;;;;3.38;3.10;;;;;;;24.17;53.72;94843.50;5097324;28;20227;-71
2022/06/24 10:32:05;;;;;;;3.42;3.10;;;;;;;24.26;53.78;94849.28;5097220;28;20212;-71
2022/06/24 10:34:37;;;;;;;3.15;2.88;;;;;;;24.32;52.01;94851.53;5097363;28;20196;-71
2022/06/24 10:37:25;;;;;;;3.13;2.83;;;;;;;24.36;53.83;94843.75;5097396;28;20283;-71
2022/06/24 10:39:53;;;;;;;4.95;2.80;;;;;;;24.42;50.01;94848.44;5098162;28;20226;-71
2022/06/24 10:42:21;;;;;;;3.67;2.83;;;;;;;24.42;49.82;94839.97;5097565;28;20204;-71
2022/06/24 10:44:54;;;;;;;3.33;2.90;;;;;;;24.49;51.11;94838.97;5097615;28;20205;-71
2022/06/24 10:47:27;;;;;;;3.90;3.20;;;;;;;24.51;50.18;94839.34;5098189;28;20249;-71
2022/06/24 10:50:25;;;;;;;2.80;2.60;;;;;;;24.52;49.31;94840.13;5097879;28;20226;-71
2022/06/24 10:53:00;;;;;;;3.95;3.30;;;;;;;24.55;48.40;94839.19;5097766;28;20640;-71
2022/06/24 10:55:31;;;;;;;3.10;2.90;;;;;;;24.56;48.85;94835.94;5098044;28;20180;-71
2022/06/24 10:58:00;;;;;;;4.28;2.90;;;;;;;24.62;49.72;94834.16;5097547;28;20199;-71
2022/06/24 11:00:30;;;;;;;3.20;3.00;;;;;;;24.48;48.87;94832.56;5098001;28;20190;-71
2022/06/24 11:03:11;;;;;;;3.45;2.60;;;;;;;24.42;48.40;94833.56;5097713;28;20185;-72
2022/06/24 11:05:39;;;;;;;3.00;2.63;;;;;;;24.47;49.47;94830.97;5098976;28;20189;-70
2022/06/24 11:08:13;;;;;;;2.80;2.60;;;;;;;24.55;50.03;94825.09;5098225;28;20176;-72
2022/06/24 11:10:41;;;;;;;3.35;2.85;;;;;;;24.62;49.51;94822.06;5097678;28;20212;-71
2022/06/24 11:13:10;;;;;;;2.80;2.60;;;;;;;24.64;47.87;94820.38;5096421;28;20216;-73
2022/06/24 11:15:37;;;;;;;3.10;2.80;;;;;;;24.74;48.25;94827.72;5096644;28;20220;-73
2022/06/24 11:18:08;;;;;;;2.70;2.50;;;;;;;24.83;44.96;94820.59;5096428;28;20200;-72
2022/06/24 11:20:37;;;;;;;2.80;2.70;;;;;;;24.83;44.56;94829.06;5096482;28;20196;-73
2022/06/24 11:23:07;;;;;;;3.58;2.47;;;;;;;24.79;45.15;94820.72;5096605;28;20200;-72
2022/06/24 11:25:36;;;;;;;2.70;2.50;;;;;;;24.85;47.22;94813.28;5096279;28;20192;-73
2022/06/24 11:28:03;;;;;;;2.92;2.60;;;;;;;25.00;48.86;94807.94;5096587;28;20228;-73
2022/06/24 11:30:29;;;;;;;3.35;3.05;;;;;;;25.15;46.26;94797.78;5096201;28;20197;-72
2022/06/24 11:32:58;;;;;;;3.83;2.60;;;;;;;25.21;45.24;94801.63;5097261;28;20213;-71
2022/06/24 11:35:26;;;;;;;3.17;2.72;;;;;;;25.30;45.40;94795.28;5096249;28;20197;-72
2022/06/24 11:37:56;;;;;;;2.90;2.60;;;;;;;25.39;43.72;94798.19;5096541;28;20185;-72
2022/06/24 11:40:23;;;;;;;3.08;2.78;;;;;;;25.38;44.35;94796.63;5095926;28;20290;-72
2022/06/24 11:42:52;;;;;;;2.90;2.42;;;;;;;25.45;44.33;94787.91;5096839;28;20193;-72
2022/06/24 11:45:31;;;;;;;2.58;2.30;;;;;;;25.48;44.18;94793.88;5096952;28;20279;-72
2022/06/24 11:47:58;;;;;;;3.45;3.00;;;;;;;25.53;45.20;94801.75;5097075;28;20208;-72